Time;durP1;ratioP1;P1;durP2;ratioP2;P2;SDS_P1;SDS_P2;PMS_P1;PMS_P2;Temp;Humidity;BMP_temperature;BMP_pressure;BME280_temperature;BME280_humidity;BME280_pressure;Samples;Min_cycle;Max_cycle;Signal;HPM_P1;HPM_P2
2023/07/05 00:01:45;;;;;;;;;;;;;;;17.07;63.78;100932.63;4161711;28;20385;-66
2023/07/05 00:03:47;;;;;;;;;;;;;;;17.06;63.89;100932.84;4162440;28;20025;-68
2023/07/05 00:05:50;;;;;;;;;;;;;;;17.07;63.78;100931.81;4161646;28;20036;-68
2023/07/05 00:07:52;;;;;;;;;;;;;;;17.09;62.96;100933.25;4163175;28;20372;-65
2023/07/05 00:09:54;;;;;;;;;;;;;;;17.10;63.66;100931.38;4161606;28;20028;-65
2023/07/05 00:11:58;;;;;;;;;;;;;;;17.06;63.94;100921.94;4162721;28;20021;-64
2023/07/05 00:14:00;;;;;;;;;;;;;;;17.06;63.46;100922.75;4163932;28;20011;-65
2023/07/05 00:16:02;;;;;;;;;;;;;;;17.11;62.74;100913.94;4163053;28;19988;-66
2023/07/05 00:18:04;;;;;;;;;;;;;;;17.14;62.10;100909.94;4163515;28;20036;-66
2023/07/05 00:20:07;;;;;;;;;;;;;;;17.19;61.60;100907.38;4163192;28;20012;-67
2023/07/05 00:22:09;;;;;;;;;;;;;;;17.24;61.33;100904.84;4162782;28;20020;-67
2023/07/05 00:24:11;;;;;;;;;;;;;;;17.28;61.26;100901.47;4163729;28;20551;-67
2023/07/05 00:26:13;;;;;;;;;;;;;;;17.26;60.52;100903.56;4163730;28;20044;-67
2023/07/05 00:28:16;;;;;;;;;;;;;;;17.32;60.62;100906.47;4163906;28;20016;-66
2023/07/05 00:30:18;;;;;;;;;;;;;;;17.31;60.61;100902.09;4137322;28;20036;-66
2023/07/05 00:32:20;;;;;;;;;;;;;;;17.24;60.59;100902.97;4163692;28;20032;-67
2023/07/05 00:34:22;;;;;;;;;;;;;;;17.25;60.50;100896.44;4161139;28;20020;-66
2023/07/05 00:36:24;;;;;;;;;;;;;;;17.27;60.67;100891.63;4162546;28;20016;-66
2023/07/05 00:38:29;;;;;;;;;;;;;;;17.23;60.55;100895.81;4163119;28;20429;-66
2023/07/05 00:40:32;;;;;;;;;;;;;;;17.24;60.54;100900.25;4137540;28;19952;-66
2023/07/05 00:42:34;;;;;;;;;;;;;;;17.26;60.12;100900.84;4145711;28;19925;-67
2023/07/05 00:44:38;;;;;;;;;;;;;;;17.27;60.03;100891.63;4144641;28;20905;-67
2023/07/05 00:46:40;;;;;;;;;;;;;;;17.30;59.97;100895.78;4162612;28;20503;-67
2023/07/05 00:48:42;;;;;;;;;;;;;;;17.26;60.14;100887.19;4138133;28;20455;-68
2023/07/05 00:50:45;;;;;;;;;;;;;;;17.23;60.38;100884.91;4160829;28;20011;-66
2023/07/05 00:52:47;;;;;;;;;;;;;;;17.20;60.44;100888.06;4163628;28;20020;-66
2023/07/05 00:54:49;;;;;;;;;;;;;;;17.17;60.12;100885.78;4163799;28;20040;-67
2023/07/05 00:56:52;;;;;;;;;;;;;;;17.19;60.22;100886.38;4164338;28;20024;-67
2023/07/05 00:58:54;;;;;;;;;;;;;;;17.20;60.36;100884.50;4164917;28;19932;-66
2023/07/05 01:00:57;;;;;;;;;;;;;;;17.19;60.03;100883.66;4152773;28;20004;-68
2023/07/05 01:02:59;;;;;;;;;;;;;;;17.19;59.58;100878.19;4164385;28;20371;-67
2023/07/05 01:05:02;;;;;;;;;;;;;;;17.19;59.67;100872.72;4163248;28;20029;-68
2023/07/05 01:07:04;;;;;;;;;;;;;;;17.21;59.61;100867.91;4152402;28;20019;-68
2023/07/05 01:09:06;;;;;;;;;;;;;;;17.20;59.39;100855.31;4163283;28;20032;-68
2023/07/05 01:11:10;;;;;;;;;;;;;;;17.24;59.44;100859.28;4161288;28;20400;-67
2023/07/05 01:13:12;;;;;;;;;;;;;;;17.24;59.45;100861.16;4162370;28;20024;-67
2023/07/05 01:15:14;;;;;;;;;;;;;;;17.25;59.42;100852.75;4162848;28;20630;-68
2023/07/05 01:17:20;;;;;;;;;;;;;;;17.30;59.17;100849.38;4163179;28;19964;-66
2023/07/05 01:19:44;;;;;;;;;;;;;;;17.28;59.22;100841.41;4163476;28;19929;-67
2023/07/05 01:21:47;;;;;;;;;;;;;;;17.29;59.41;100843.09;4145154;28;20065;-68
2023/07/05 01:23:59;;;;;;;;;;;;;;;17.31;59.53;100837.41;4146159;28;20392;-67
2023/07/05 01:26:13;;;;;;;;;;;;;;;17.27;59.61;100834.28;4144171;28;20264;-68
2023/07/05 01:28:22;;;;;;;;;;;;;;;17.23;59.63;100827.59;4163995;28;20012;-66
2023/07/05 01:30:40;;;;;;;;;;;;;;;17.22;59.87;100825.06;4163903;28;19964;-68
2023/07/05 01:32:44;;;;;;;;;;;;;;;17.17;59.77;100828.47;4164013;28;19961;-68
2023/07/05 01:34:48;;;;;;;;;;;;;;;17.10;59.89;100833.13;4161921;28;20016;-67
2023/07/05 01:36:50;;;;;;;;;;;;;;;17.07;60.17;100825.38;4162281;28;20361;-67
2023/07/05 01:38:52;;;;;;;;;;;;;;;17.03;60.16;100832.31;4164088;28;20027;-67
2023/07/05 01:40:59;;;;;;;;;;;;;;;17.03;60.55;100832.31;4162961;28;19939;-67
2023/07/05 01:43:01;;;;;;;;;;;;;;;17.03;60.54;100829.59;4160324;28;20017;-68
2023/07/05 01:45:04;;;;;;;;;;;;;;;17.04;60.62;100825.81;4152863;28;20012;-68
2023/07/05 01:47:07;;;;;;;;;;;;;;;16.97;60.55;100823.09;4138939;28;19964;-67
2023/07/05 01:49:23;;;;;;;;;;;;;;;16.96;60.53;100831.50;4162119;28;20021;-67
2023/07/05 01:51:27;;;;;;;;;;;;;;;16.93;60.67;100824.59;4161758;28;19990;-68
2023/07/05 01:53:30;;;;;;;;;;;;;;;16.92;60.68;100818.28;4163173;28;20016;-68
2023/07/05 01:55:33;;;;;;;;;;;;;;;16.95;60.46;100824.41;4159999;28;20023;-65
2023/07/05 01:57:35;;;;;;;;;;;;;;;16.90;60.50;100822.31;4162285;28;20064;-67
2023/07/05 01:59:39;;;;;;;;;;;;;;;16.90;60.33;100820.41;4158534;28;20059;-68
2023/07/05 02:01:42;;;;;;;;;;;;;;;16.89;60.47;100824.19;4161179;28;20327;-68
2023/07/05 02:03:44;;;;;;;;;;;;;;;16.87;60.71;100820.03;4144589;28;20016;-68
2023/07/05 02:05:48;;;;;;;;;;;;;;;16.85;60.51;100814.75;4161193;28;20024;-67
2023/07/05 02:07:50;;;;;;;;;;;;;;;16.82;60.34;100817.91;4162817;28;20032;-66
2023/07/05 02:09:52;;;;;;;;;;;;;;;16.85;60.58;100812.03;4143545;28;20037;-68
2023/07/05 02:11:56;;;;;;;;;;;;;;;16.77;60.51;100812.28;4143092;28;20020;-67
2023/07/05 02:13:59;;;;;;;;;;;;;;;16.76;60.19;100805.13;4142843;28;20593;-67
2023/07/05 02:16:01;;;;;;;;;;;;;;;16.76;60.22;100795.06;4142976;28;20108;-67
2023/07/05 02:18:03;;;;;;;;;;;;;;;16.78;60.55;100796.75;4162470;28;20027;-68
2023/07/05 02:20:06;;;;;;;;;;;;;;;16.75;60.32;100798.00;4161039;28;20023;-67
2023/07/05 02:22:10;;;;;;;;;;;;;;;16.75;60.08;100789.81;4159963;28;19957;-66
2023/07/05 02:24:12;;;;;;;;;;;;;;;16.78;60.20;100791.28;4142964;28;20023;-67
2023/07/05 02:26:15;;;;;;;;;;;;;;;16.78;60.22;100799.47;4162872;28;20016;-67
2023/07/05 02:28:17;;;;;;;;;;;;;;;16.72;60.19;100788.38;4159918;28;20474;-67
2023/07/05 02:30:20;;;;;;;;;;;;;;;16.74;59.96;100785.44;4134680;28;20028;-66
2023/07/05 02:32:22;;;;;;;;;;;;;;;16.71;60.07;100781.25;4160312;28;20004;-67
2023/07/05 02:34:25;;;;;;;;;;;;;;;16.72;60.01;100776.59;4160463;28;20013;-67
2023/07/05 02:36:27;;;;;;;;;;;;;;;16.73;60.08;100772.84;4150831;28;20542;-66
2023/07/05 02:38:31;;;;;;;;;;;;;;;16.73;59.64;100762.75;4161237;28;20024;-67
2023/07/05 02:40:33;;;;;;;;;;;;;;;16.70;59.42;100760.47;4141957;28;20374;-66
2023/07/05 02:42:35;;;;;;;;;;;;;;;16.68;59.55;100756.31;4161443;28;19925;-67
2023/07/05 02:44:37;;;;;;;;;;;;;;;16.68;59.26;100750.84;4161072;28;20024;-67
2023/07/05 02:46:39;;;;;;;;;;;;;;;16.67;59.16;100741.81;4161663;28;20044;-67
2023/07/05 02:48:41;;;;;;;;;;;;;;;16.66;59.50;100744.75;4161056;28;20479;-68
2023/07/05 02:50:43;;;;;;;;;;;;;;;16.61;59.49;100731.78;4160086;28;20005;-67
2023/07/05 02:52:45;;;;;;;;;;;;;;;16.58;59.17;100733.06;4160885;28;20383;-66
2023/07/05 02:54:48;;;;;;;;;;;;;;;16.64;59.22;100725.06;4158193;28;20008;-67
2023/07/05 02:56:50;;;;;;;;;;;;;;;16.62;59.62;100721.72;4160450;28;20005;-67
2023/07/05 02:58:51;;;;;;;;;;;;;;;16.60;59.52;100721.09;4158854;28;19997;-66
2023/07/05 03:00:53;;;;;;;;;;;;;;;16.60;59.42;100712.91;4160879;28;19929;-67
2023/07/05 03:02:54;;;;;;;;;;;;;;;16.62;59.54;100710.81;4159743;28;19925;-68
2023/07/05 03:04:56;;;;;;;;;;;;;;;16.62;59.65;100710.81;4161681;28;19932;-67
2023/07/05 03:06:59;;;;;;;;;;;;;;;16.62;59.68;100706.19;4160970;28;20024;-67
2023/07/05 03:09:02;;;;;;;;;;;;;;;16.62;59.63;100702.63;4159283;28;20056;-67
2023/07/05 03:11:05;;;;;;;;;;;;;;;16.56;59.76;100699.69;4163178;28;20025;-68
2023/07/05 03:13:07;;;;;;;;;;;;;;;16.59;59.85;100701.16;4145625;28;20025;-67
2023/07/05 03:15:10;;;;;;;;;;;;;;;16.56;59.56;100698.88;4138373;28;20020;-67
2023/07/05 03:17:12;;;;;;;;;;;;;;;16.57;59.80;100695.09;4163701;28;20021;-67
2023/07/05 03:19:14;;;;;;;;;;;;;;;16.57;59.93;100700.56;4163141;28;20110;-67
2023/07/05 03:21:16;;;;;;;;;;;;;;;16.53;59.66;100702.03;4152939;28;20027;-67
2023/07/05 03:23:18;;;;;;;;;;;;;;;16.52;59.76;100701.22;4146676;28;20526;-67
2023/07/05 03:25:20;;;;;;;;;;;;;;;16.52;59.67;100701.22;4163895;28;20536;-68
2023/07/05 03:27:24;;;;;;;;;;;;;;;16.56;59.80;100704.31;4164566;28;20043;-67
2023/07/05 03:29:26;;;;;;;;;;;;;;;16.56;59.90;100699.69;4145112;28;20111;-67
2023/07/05 03:31:28;;;;;;;;;;;;;;;16.54;59.61;100699.09;4162872;28;20020;-67
2023/07/05 03:33:31;;;;;;;;;;;;;;;16.55;59.47;100695.31;4145839;28;20462;-68
2023/07/05 03:35:34;;;;;;;;;;;;;;;16.51;59.40;100699.53;4145361;28;20015;-67
2023/07/05 03:37:36;;;;;;;;;;;;;;;16.53;59.46;100685.69;4164107;28;20024;-67
2023/07/05 03:39:39;;;;;;;;;;;;;;;16.53;59.70;100696.59;4162713;28;20028;-67
2023/07/05 03:41:41;;;;;;;;;;;;;;;16.54;59.61;100692.81;4163956;28;20028;-67
2023/07/05 03:43:46;;;;;;;;;;;;;;;16.54;59.49;100693.63;4163642;28;19925;-67
2023/07/05 03:45:47;;;;;;;;;;;;;;;16.58;59.44;100697.63;4145910;28;20016;-67
2023/07/05 03:47:49;;;;;;;;;;;;;;;16.57;59.04;100693.22;4163695;28;20001;-67
2023/07/05 03:49:51;;;;;;;;;;;;;;;16.60;59.34;100686.50;4163980;28;20530;-67
2023/07/05 03:51:53;;;;;;;;;;;;;;;16.60;59.21;100685.63;4163852;28;20019;-66
2023/07/05 03:53:56;;;;;;;;;;;;;;;16.58;58.74;100681.25;4139470;28;19964;-65
2023/07/05 03:56:00;;;;;;;;;;;;;;;16.55;59.15;100681.69;4164934;28;20005;-67
2023/07/05 03:58:02;;;;;;;;;;;;;;;16.59;59.08;100684.81;4162926;28;20024;-67
2023/07/05 04:00:06;;;;;;;;;;;;;;;16.60;59.10;100681.03;4163210;28;20375;-67
2023/07/05 04:02:14;;;;;;;;;;;;;;;16.61;59.17;100679.13;4163673;28;20012;-66
2023/07/05 04:04:16;;;;;;;;;;;;;;;16.63;59.34;100677.88;4163862;28;20446;-66
2023/07/05 04:06:18;;;;;;;;;;;;;;;16.62;59.03;100681.66;4164371;28;20012;-67
2023/07/05 04:08:20;;;;;;;;;;;;;;;16.65;59.32;100675.75;4164770;28;20530;-65
2023/07/05 04:10:22;;;;;;;;;;;;;;;16.67;59.28;100665.47;4163595;28;20469;-67
2023/07/05 04:12:24;;;;;;;;;;;;;;;16.66;59.06;100666.53;4164395;28;20024;-67
2023/07/05 04:14:26;;;;;;;;;;;;;;;16.70;58.89;100662.28;4164109;28;20024;-68
2023/07/05 04:16:29;;;;;;;;;;;;;;;16.75;59.17;100667.94;4164700;28;19975;-68
2023/07/05 04:18:31;;;;;;;;;;;;;;;16.73;58.55;100659.13;4164875;28;20020;-66
2023/07/05 04:20:36;;;;;;;;;;;;;;;16.74;58.64;100665.44;4163515;28;20012;-68
2023/07/05 04:22:39;;;;;;;;;;;;;;;16.76;58.76;100666.03;4161159;28;19964;-67
2023/07/05 04:24:41;;;;;;;;;;;;;;;16.73;58.84;100659.13;4164597;28;19940;-67
2023/07/05 04:26:43;;;;;;;;;;;;;;;16.74;58.55;100654.53;4164716;28;20466;-67
2023/07/05 04:28:45;;;;;;;;;;;;;;;16.78;58.49;100650.28;4164008;28;20025;-67
2023/07/05 04:30:47;;;;;;;;;;;;;;;16.80;58.81;100644.63;4163217;28;19989;-67
2023/07/05 04:32:50;;;;;;;;;;;;;;;16.78;58.40;100639.38;4164030;28;20020;-68
2023/07/05 04:34:52;;;;;;;;;;;;;;;16.79;58.66;100638.34;4163527;28;20032;-68
2023/07/05 04:36:54;;;;;;;;;;;;;;;16.81;58.37;100632.66;4162846;28;20005;-67
2023/07/05 04:38:57;;;;;;;;;;;;;;;16.82;58.26;100631.59;4164100;28;20586;-68
2023/07/05 04:40:59;;;;;;;;;;;;;;;16.85;58.38;100636.59;4163142;28;20027;-66
2023/07/05 04:43:01;;;;;;;;;;;;;;;16.82;58.55;100624.25;4163226;28;20028;-66
2023/07/05 04:45:03;;;;;;;;;;;;;;;16.87;58.64;100618.16;4163748;28;20477;-66
2023/07/05 04:47:05;;;;;;;;;;;;;;;16.88;58.68;100617.09;4163907;28;20495;-67
2023/07/05 04:49:09;;;;;;;;;;;;;;;16.89;58.54;100619.59;4164123;28;20027;-67
2023/07/05 04:51:11;;;;;;;;;;;;;;;16.92;58.64;100616.44;4163019;28;20020;-67
2023/07/05 04:53:13;;;;;;;;;;;;;;;16.93;58.54;100615.38;4163655;28;20047;-67
2023/07/05 04:55:15;;;;;;;;;;;;;;;16.95;58.55;100617.88;4163421;28;20016;-68
2023/07/05 04:57:17;;;;;;;;;;;;;;;16.97;58.59;100614.94;4164607;28;20024;-68
2023/07/05 04:59:19;;;;;;;;;;;;;;;17.00;58.87;100609.84;4163109;28;20016;-68
2023/07/05 05:01:21;;;;;;;;;;;;;;;17.02;58.44;100612.38;4163960;28;19996;-67
2023/07/05 05:03:23;;;;;;;;;;;;;;;17.02;58.28;100612.38;4163756;28;20039;-67
2023/07/05 05:05:27;;;;;;;;;;;;;;;17.06;58.47;100600.78;4163346;28;20439;-67
2023/07/05 05:07:29;;;;;;;;;;;;;;;17.08;58.32;100598.69;4163450;28;20467;-68
2023/07/05 05:09:31;;;;;;;;;;;;;;;17.07;58.62;100597.00;4162893;28;19985;-67
2023/07/05 05:11:33;;;;;;;;;;;;;;;17.09;58.53;100585.88;4163302;28;20032;-67
2023/07/05 05:13:35;;;;;;;;;;;;;;;17.10;58.38;100588.38;4163198;28;20023;-66
2023/07/05 05:15:37;;;;;;;;;;;;;;;17.14;58.44;100591.47;4164735;28;20542;-68
2023/07/05 05:17:39;;;;;;;;;;;;;;;17.15;58.09;100598.63;4164663;28;19993;-67
2023/07/05 05:19:41;;;;;;;;;;;;;;;17.19;58.04;100593.53;4163826;28;20402;-68
2023/07/05 05:21:49;;;;;;;;;;;;;;;17.22;58.03;100595.81;4160516;28;20047;-69
2023/07/05 05:23:51;;;;;;;;;;;;;;;17.25;58.06;100584.47;4163360;28;20088;-67
2023/07/05 05:25:53;;;;;;;;;;;;;;;17.27;58.27;100585.91;4162522;28;19932;-68
2023/07/05 05:27:55;;;;;;;;;;;;;;;17.32;58.28;100592.56;4162901;28;20028;-68
2023/07/05 05:29:57;;;;;;;;;;;;;;;17.33;58.29;100580.59;4163194;28;20482;-67
2023/07/05 05:31:59;;;;;;;;;;;;;;;17.35;58.35;100571.13;4162436;28;20023;-68
2023/07/05 05:34:02;;;;;;;;;;;;;;;17.40;58.39;100570.47;4163120;28;20062;-68
2023/07/05 05:36:04;;;;;;;;;;;;;;;17.42;57.77;100563.69;4164674;28;20020;-68
2023/07/05 05:38:08;;;;;;;;;;;;;;;17.45;58.08;100557.78;4164052;28;19996;-67
2023/07/05 05:40:10;;;;;;;;;;;;;;;17.48;58.20;100560.06;4163605;28;20008;-68
2023/07/05 05:42:12;;;;;;;;;;;;;;;17.52;58.18;100551.41;4146891;28;20451;-67
2023/07/05 05:44:14;;;;;;;;;;;;;;;17.56;58.26;100558.09;4163938;28;19933;-67
2023/07/05 05:46:17;;;;;;;;;;;;;;;17.60;57.84;100551.09;4164511;28;20429;-67
2023/07/05 05:48:19;;;;;;;;;;;;;;;17.64;57.79;100555.06;4164455;28;20028;-67
2023/07/05 05:50:22;;;;;;;;;;;;;;;17.70;57.59;100540.47;4162995;28;20019;-65
2023/07/05 05:52:24;;;;;;;;;;;;;;;17.75;57.30;100546.09;4164005;28;20024;-68
2023/07/05 05:54:28;;;;;;;;;;;;;;;17.81;57.50;100536.97;4163550;28;20033;-68
2023/07/05 05:56:30;;;;;;;;;;;;;;;17.86;57.33;100541.75;4163599;28;20012;-68
2023/07/05 05:58:32;;;;;;;;;;;;;;;17.90;57.41;100545.72;4164689;28;19972;-68
2023/07/05 06:00:34;;;;;;;;;;;;;;;17.92;57.20;100538.13;4162786;28;20012;-68
2023/07/05 06:02:36;;;;;;;;;;;;;;;17.96;57.19;100517.50;4164038;28;20091;-67
2023/07/05 06:04:38;;;;;;;;;;;;;;;17.98;57.02;100520.81;4163890;28;20020;-68
2023/07/05 06:06:40;;;;;;;;;;;;;;;18.00;56.61;100510.47;4157653;28;20425;-68
2023/07/05 06:08:42;;;;;;;;;;;;;;;18.05;56.65;100508.97;4152995;28;19992;-67
2023/07/05 06:10:46;;;;;;;;;;;;;;;18.05;56.88;100495.28;4130532;28;20040;-68
2023/07/05 06:12:48;;;;;;;;;;;;;;;18.08;56.76;100497.56;4160897;28;20024;-68
2023/07/05 06:14:50;;;;;;;;;;;;;;;18.11;56.65;100497.09;4163053;28;20032;-68
2023/07/05 06:16:52;;;;;;;;;;;;;;;18.09;56.60;100488.31;4163840;28;19957;-67
2023/07/05 06:18:54;;;;;;;;;;;;;;;18.13;56.47;100489.50;4166190;28;19952;-68
2023/07/05 06:20:56;;;;;;;;;;;;;;;18.17;56.64;100490.69;4163991;28;19960;-68
2023/07/05 06:22:58;;;;;;;;;;;;;;;18.17;56.38;100482.50;4164879;28;19979;-68
2023/07/05 06:25:00;;;;;;;;;;;;;;;18.19;56.32;100485.81;4163735;28;20008;-68
2023/07/05 06:27:04;;;;;;;;;;;;;;;18.23;56.24;100478.84;4165247;28;20276;-68
2023/07/05 06:29:06;;;;;;;;;;;;;;;18.26;56.16;100485.72;4162715;28;20571;-67
2023/07/05 06:31:09;;;;;;;;;;;;;;;18.27;56.31;100480.00;4160188;28;20343;-67
2023/07/05 06:33:11;;;;;;;;;;;;;;;18.29;56.27;100464.22;4160310;28;20032;-67
2023/07/05 06:35:13;;;;;;;;;;;;;;;18.33;56.27;100459.13;4157840;28;20024;-68
2023/07/05 06:37:16;;;;;;;;;;;;;;;18.36;56.21;100453.19;4141711;28;20024;-67
2023/07/05 06:39:18;;;;;;;;;;;;;;;18.39;56.10;100460.09;4159045;28;20032;-66
2023/07/05 06:41:20;;;;;;;;;;;;;;;18.41;56.14;100447.81;4158064;28;20028;-66
2023/07/05 06:43:23;;;;;;;;;;;;;;;18.44;55.97;100441.06;4159156;28;20032;-66
2023/07/05 06:45:25;;;;;;;;;;;;;;;18.49;55.93;100441.19;4162060;28;20021;-68
2023/07/05 06:47:27;;;;;;;;;;;;;;;18.52;55.82;100435.22;4164191;28;19929;-66
2023/07/05 06:49:29;;;;;;;;;;;;;;;18.57;55.73;100434.53;4137932;28;20004;-68
2023/07/05 06:51:31;;;;;;;;;;;;;;;18.60;55.77;100423.94;4164031;28;20020;-67
2023/07/05 06:53:36;;;;;;;;;;;;;;;18.62;55.81;100421.81;4164901;28;20019;-68
2023/07/05 06:55:39;;;;;;;;;;;;;;;18.67;55.50;100421.09;4164419;28;20019;-68
2023/07/05 06:57:41;;;;;;;;;;;;;;;18.70;55.53;100420.63;4162687;28;20025;-68
2023/07/05 06:59:44;;;;;;;;;;;;;;;18.73;55.53;100420.97;4164315;28;20020;-68
2023/07/05 07:01:46;;;;;;;;;;;;;;;18.76;55.17;100418.81;4164521;28;20028;-67
2023/07/05 07:03:51;;;;;;;;;;;;;;;18.80;55.48;100428.22;4164848;28;20024;-68
2023/07/05 07:05:54;;;;;;;;;;;;;;;18.84;55.20;100434.84;4164514;28;20008;-67
2023/07/05 07:07:56;;;;;;;;;;;;;;;18.87;55.17;100427.06;4165680;28;19929;-67
2023/07/05 07:09:58;;;;;;;;;;;;;;;18.90;55.25;100433.94;4163979;28;20035;-65
2023/07/05 07:12:00;;;;;;;;;;;;;;;18.94;55.19;100442.53;4164507;28;20032;-67
2023/07/05 07:14:02;;;;;;;;;;;;;;;18.98;55.28;100449.16;4164068;28;20036;-67
2023/07/05 07:16:06;;;;;;;;;;;;;;;19.03;55.08;100452.84;4162837;28;20047;-67
2023/07/05 07:18:08;;;;;;;;;;;;;;;19.07;55.07;100451.31;4164476;28;20446;-67
2023/07/05 07:20:11;;;;;;;;;;;;;;;19.12;54.85;100447.81;4129656;28;19976;-66
2023/07/05 07:22:15;;;;;;;;;;;;;;;19.16;54.73;100450.94;4164355;28;20027;-66
2023/07/05 07:24:17;;;;;;;;;;;;;;;19.21;54.74;100442.81;4163434;28;20008;-67
2023/07/05 07:26:19;;;;;;;;;;;;;;;19.25;54.41;100439.34;4164770;28;20027;-68
2023/07/05 07:28:21;;;;;;;;;;;;;;;19.27;54.36;100436.38;4164633;28;19937;-67
2023/07/05 07:30:26;;;;;;;;;;;;;;;19.31;54.53;100434.81;4153983;28;20019;-67
2023/07/05 07:32:29;;;;;;;;;;;;;;;19.35;54.40;100418.72;4163994;28;20016;-67
2023/07/05 07:34:32;;;;;;;;;;;;;;;19.41;54.23;100426.81;4163349;28;20010;-68
2023/07/05 07:36:34;;;;;;;;;;;;;;;19.49;53.78;100408.31;4163450;28;20027;-67
2023/07/05 07:38:39;;;;;;;;;;;;;;;19.56;53.60;100414.47;4163390;28;20276;-67
2023/07/05 07:40:41;;;;;;;;;;;;;;;19.59;53.61;100411.25;4161180;28;20035;-67
2023/07/05 07:42:43;;;;;;;;;;;;;;;19.62;53.45;100421.72;4163616;28;20044;-67
2023/07/05 07:44:45;;;;;;;;;;;;;;;19.66;53.29;100442.06;4162447;28;20019;-67
2023/07/05 07:46:47;;;;;;;;;;;;;;;19.75;53.21;100423.34;4162813;28;20036;-68
2023/07/05 07:48:51;;;;;;;;;;;;;;;19.81;53.15;100411.41;4163806;28;19929;-68
2023/07/05 07:50:53;;;;;;;;;;;;;;;19.81;52.98;100411.41;4162429;28;19925;-67
2023/07/05 07:52:55;;;;;;;;;;;;;;;19.83;52.94;100422.97;4163454;28;20434;-67
2023/07/05 07:54:57;;;;;;;;;;;;;;;19.84;53.03;100430.09;4162505;28;20442;-66
2023/07/05 07:56:59;;;;;;;;;;;;;;;19.90;53.08;100428.28;4161001;28;19986;-67
2023/07/05 07:59:04;;;;;;;;;;;;;;;19.94;52.84;100437.69;4162323;28;20020;-67
2023/07/05 08:01:13;;;;;;;;;;;;;;;19.97;52.83;100431.72;4161975;28;20019;-67
2023/07/05 08:03:14;;;;;;;;;;;;;;;20.02;52.72;100434.53;4163034;28;20024;-67
2023/07/05 08:05:18;;;;;;;;;;;;;;;20.05;52.69;100441.44;4162822;28;20031;-67
2023/07/05 08:07:20;;;;;;;;;;;;;;;20.05;52.68;100444.19;4162777;28;20008;-67
2023/07/05 08:09:23;;;;;;;;;;;;;;;20.06;52.57;100441.19;4162562;28;19936;-67
2023/07/05 08:11:25;;;;;;;;;;;;;;;20.09;52.63;100448.09;4162737;28;20025;-68
2023/07/05 08:13:27;;;;;;;;;;;;;;;20.08;52.53;100457.41;4162987;28;20023;-68
2023/07/05 08:15:29;;;;;;;;;;;;;;;20.10;52.48;100471.69;4163127;28;20008;-67
2023/07/05 08:17:31;;;;;;;;;;;;;;;20.11;52.69;100463.22;4163476;28;20023;-68
2023/07/05 08:19:33;;;;;;;;;;;;;;;20.12;52.58;100470.34;4162490;28;20354;-68
2023/07/05 08:21:37;;;;;;;;;;;;;;;20.15;52.58;100467.09;4162925;28;20019;-68
2023/07/05 08:23:39;;;;;;;;;;;;;;;20.17;52.56;100458.63;4163521;28;20019;-68
2023/07/05 08:25:42;;;;;;;;;;;;;;;20.15;52.81;100464.34;4163140;28;20365;-68
2023/07/05 08:27:44;;;;;;;;;;;;;;;20.16;52.69;100457.00;4163317;28;20029;-68
2023/07/05 08:29:46;;;;;;;;;;;;;;;20.19;52.89;100458.38;4163637;28;19999;-67
2023/07/05 08:31:48;;;;;;;;;;;;;;;20.20;52.80;100462.81;4163226;28;20017;-67
2023/07/05 08:33:50;;;;;;;;;;;;;;;20.21;52.80;100467.22;4163695;28;20627;-67
2023/07/05 08:36:05;;;;;;;;;;;;;;;20.23;52.63;100467.78;4163455;28;20024;-67
2023/07/05 08:38:09;;;;;;;;;;;;;;;20.27;52.84;100455.25;4163604;28;20647;-67
2023/07/05 08:40:11;;;;;;;;;;;;;;;20.26;52.93;100453.59;4161862;28;20027;-68
2023/07/05 08:42:17;;;;;;;;;;;;;;;20.26;52.90;100445.34;4161674;28;20019;-68
2023/07/05 08:44:21;;;;;;;;;;;;;;;20.25;53.11;100446.44;4162208;28;20044;-68
2023/07/05 08:46:23;;;;;;;;;;;;;;;20.22;53.38;100449.66;4162252;28;20678;-68
2023/07/05 08:48:25;;;;;;;;;;;;;;;20.23;53.42;100443.09;4162702;28;20012;-67
2023/07/05 08:50:28;;;;;;;;;;;;;;;20.25;53.55;100446.44;4161495;28;20012;-68
2023/07/05 08:52:32;;;;;;;;;;;;;;;20.22;53.63;100452.41;4162564;28;20431;-67
2023/07/05 08:54:42;;;;;;;;;;;;;;;20.22;53.74;100449.66;4162119;28;20095;-66
2023/07/05 08:56:45;;;;;;;;;;;;;;;20.24;53.73;100447.53;4161982;28;20040;-67
2023/07/05 08:58:48;;;;;;;;;;;;;;;20.22;54.40;100450.50;4162424;28;20099;-67
2023/07/05 09:00:52;;;;;;;;;;;;;;;20.21;54.38;100446.09;4161339;28;20363;-66
2023/07/05 09:02:54;;;;;;;;;;;;;;;20.19;54.26;100445.53;4162130;28;20482;-66
2023/07/05 09:04:58;;;;;;;;;;;;;;;20.20;54.88;100446.34;4159824;28;20009;-67
2023/07/05 09:07:02;;;;;;;;;;;;;;;20.20;54.64;100457.31;4160046;28;19924;-66
2023/07/05 09:09:08;;;;;;;;;;;;;;;20.22;55.08;100458.75;4158614;28;19972;-68
2023/07/05 09:11:12;;;;;;;;;;;;;;;20.26;54.37;100459.06;4161202;28;20450;-67
2023/07/05 09:13:16;;;;;;;;;;;;;;;20.24;54.91;100459.31;4163048;28;20032;-68
2023/07/05 09:15:21;;;;;;;;;;;;;;;20.24;54.92;100461.25;4161910;28;20059;-68
2023/07/05 09:17:25;;;;;;;;;;;;;;;20.26;54.79;100457.16;4162500;28;20380;-66
2023/07/05 09:19:30;;;;;;;;;;;;;;;20.29;55.08;100455.84;4161570;28;19997;-65
2023/07/05 09:21:33;;;;;;;;;;;;;;;20.28;54.84;100449.53;4163899;28;20458;-67
2023/07/05 09:23:35;;;;;;;;;;;;;;;20.29;54.85;100453.91;4163073;28;20040;-67
2023/07/05 09:25:37;;;;;;;;;;;;;;;20.35;54.97;100446.59;4162328;28;20052;-68
2023/07/05 09:27:43;;;;;;;;;;;;;;;20.37;54.58;100443.63;4162778;28;20020;-67
2023/07/05 09:29:47;;;;;;;;;;;;;;;20.41;54.75;100447.53;4161879;28;20016;-67
2023/07/05 09:31:49;;;;;;;;;;;;;;;20.41;54.98;100442.06;4162160;28;20450;-68
2023/07/05 09:33:54;;;;;;;;;;;;;;;20.40;55.14;100445.84;4162285;28;20450;-68
2023/07/05 09:35:55;;;;;;;;;;;;;;;20.43;54.76;100453.59;4161458;28;20622;-67
2023/07/05 09:37:59;;;;;;;;;;;;;;;20.44;55.13;100449.75;4161187;28;20128;-67
2023/07/05 09:40:05;;;;;;;;;;;;;;;20.46;55.10;100444.88;4160236;28;20015;-67
2023/07/05 09:42:09;;;;;;;;;;;;;;;20.45;54.96;100448.69;4160648;28;20032;-66
2023/07/05 09:44:13;;;;;;;;;;;;;;;20.45;55.18;100435.78;4161884;28;20023;-67
2023/07/05 09:46:18;;;;;;;;;;;;;;;20.49;54.70;100442.44;4161241;28;20413;-67
2023/07/05 09:48:20;;;;;;;;;;;;;;;20.49;55.08;100439.69;4161671;28;20028;-66
2023/07/05 09:50:22;;;;;;;;;;;;;;;20.50;54.96;100444.13;4161384;28;20363;-67
2023/07/05 09:52:25;;;;;;;;;;;;;;;20.53;54.86;100448.25;4162691;28;19971;-67
2023/07/05 09:54:29;;;;;;;;;;;;;;;20.58;54.92;100447.50;4160602;28;20039;-68
2023/07/05 09:56:31;;;;;;;;;;;;;;;20.57;55.12;100446.69;4160831;28;20044;-68
2023/07/05 09:58:33;;;;;;;;;;;;;;;20.58;55.06;100439.28;4160778;28;20040;-66
2023/07/05 10:00:37;;;;;;;;;;;;;;;20.57;55.05;100434.88;4160215;28;20024;-67
2023/07/05 10:02:39;;;;;;;;;;;;;;;20.58;55.21;100436.53;4160609;28;20007;-66
2023/07/05 10:04:44;;;;;;;;;;;;;;;20.60;55.00;100432.47;4160733;28;20039;-65
2023/07/05 10:06:46;;;;;;;;;;;;;;;20.63;54.96;100434.69;4161790;28;20024;-66
2023/07/05 10:08:50;;;;;;;;;;;;;;;20.68;55.05;100437.53;4161026;28;20019;-67
2023/07/05 10:10:52;;;;;;;;;;;;;;;20.69;55.07;100441.97;4160449;28;20487;-67
2023/07/05 10:13:00;;;;;;;;;;;;;;;20.71;55.00;100444.44;4161262;28;19959;-66
2023/07/05 10:15:02;;;;;;;;;;;;;;;20.74;55.22;100440.38;4160955;28;20016;-65
2023/07/05 10:17:06;;;;;;;;;;;;;;;20.73;55.57;100436.78;4160743;28;20283;-67
2023/07/05 10:19:10;;;;;;;;;;;;;;;20.77;55.19;100446.19;4160956;28;20474;-65
2023/07/05 10:21:16;;;;;;;;;;;;;;;20.80;55.15;100440.19;4159528;28;20019;-67
2023/07/05 10:23:19;;;;;;;;;;;;;;;20.84;55.20;100437.78;4160761;28;20020;-67
2023/07/05 10:25:21;;;;;;;;;;;;;;;20.85;55.37;100437.53;4160240;28;20031;-66
2023/07/05 10:27:25;;;;;;;;;;;;;;;20.88;55.26;100433.44;4161330;28;20020;-66
2023/07/05 10:29:27;;;;;;;;;;;;;;;20.90;55.71;100425.78;4161022;28;20016;-66
2023/07/05 10:31:30;;;;;;;;;;;;;;;20.92;55.36;100429.09;4160717;28;20015;-66